Data for 03/26/2006

Time Sea-Level Adjusted Pressure Absolute Pressure Temperature Relative Humidity Dew Point   
(mb) (inHg) (mb) (inHg) (C) (F) (%) (C) (F)
00:05 1002 29.59 831 24.54 4.7 40.5 79 1.4 34.6
00:10 1002 29.59 832 24.57 4.3 39.8 80 1.2 34.2
00:15 1003 29.62 832 24.57 4.1 39.4 81 1.1 34.1
00:20 1003 29.62 832 24.57 3.8 38.9 82 1 33.7
00:25 1003 29.62 832 24.57 3.7 38.6 82 0.9 33.7
00:30 1003 29.62 832 24.57 3.5 38.4 83 0.9 33.6
00:35 1003 29.62 832 24.57 3.3 38 84 1 33.7
00:40 1003 29.62 832 24.57 3 37.4 87 1 33.8
00:45 1003 29.62 833 24.6 2.5 36.5 89 0.9 33.5
00:50 1004 29.65 833 24.6 1.9 35.3 92 0.6 33.1
00:55 1004 29.65 833 24.6 1.5 34.6 93 0.5 32.8
01:00 1004 29.65 833 24.6 1.2 34.1 94 0.3 32.6
01:05 1004 29.65 833 24.6 1 33.8 95 0.3 32.5
01:10 1004 29.65 833 24.6 0.8 33.4 96 0.3 32.5
01:15 1004 29.65 833 24.6 0.7 33.3 97 0.3 32.5
01:20 1004 29.65 833 24.6 0.7 33.2 97 0.3 32.5
01:25 1004 29.65 833 24.6 0.6 33.1 97 0.2 32.4
01:30 1004 29.65 833 24.6 0.6 33 98 0.3 32.5
01:35 1004 29.65 833 24.6 0.6 33.1 98 0.3 32.6
01:40 1004 29.65 833 24.6 0.6 33.1 98 0.3 32.6
01:45 1004 29.65 833 24.6 0.6 33.1 98 0.4 32.6
01:50 1004 29.65 833 24.6 0.6 33.1 98 0.3 32.6
01:55 1004 29.65 834 24.63 0.6 33.1 98 0.3 32.6
02:00 1004 29.65 834 24.63 0.6 33.1 98 0.3 32.6
02:05 1004 29.65 834 24.63 0.6 33 98 0.3 32.6
02:10 1004 29.65 834 24.63 0.5 33 98 0.3 32.5
02:15 1004 29.65 833 24.6 0.5 32.9 98 0.3 32.5
02:20 1004 29.65 834 24.63 0.5 32.8 98 0.2 32.4
02:25 1004 29.65 834 24.63 0.5 32.8 98 0.2 32.4
02:30 1005 29.68 834 24.63 0.3 32.6 98 0.1 32.2
02:35 1005 29.68 834 24.63 0.1 32.3 99 -0 31.9
02:40 1005 29.68 834 24.63 0.3 32.5 99 0.2 32.3
02:45 1004 29.65 834 24.63 0.4 32.7 99 0.3 32.5
02:50 1004 29.65 834 24.63 0.4 32.8 99 0.3 32.5
02:55 1005 29.68 834 24.63 0.5 32.9 99 0.4 32.7
03:00 1005 29.68 834 24.63 0.5 32.8 99 0.3 32.5
03:05 1004 29.65 834 24.63 0.4 32.7 99 0.3 32.5
03:10 1004 29.65 834 24.63 0.5 32.9 99 0.4 32.6
03:15 1004 29.65 834 24.63 0.6 33 99 0.4 32.7
03:20 1004 29.65 834 24.63 0.6 33 99 0.4 32.8
03:25 1004 29.65 834 24.63 0.5 32.8 99 0.3 32.5
03:30 1004 29.65 834 24.63 0.3 32.6 99 0.2 32.3
03:35 1004 29.65 834 24.63 0.3 32.6 99 0.2 32.4
03:40 1004 29.65 834 24.63 0.4 32.7 99 0.3 32.6
03:45 1004 29.65 834 24.63 0.3 32.6 99 0.2 32.3
03:50 1004 29.65 834 24.63 0.2 32.3 99 0.1 32.1
03:55 1004 29.65 834 24.63 0.2 32.4 99 0.1 32.2
04:00 1004 29.65 834 24.63 0.2 32.3 100 0.1 32.2
04:05 1004 29.65 834 24.63 0.2 32.4 100 0.2 32.3
04:10 1005 29.68 834 24.63 0.3 32.5 100 0.2 32.4
04:15 1005 29.68 834 24.63 0.4 32.7 100 0.3 32.6
04:20 1005 29.68 834 24.63 0.4 32.7 100 0.3 32.6
04:25 1005 29.68 834 24.63 0.6 33.1 99 0.5 32.9
04:30 1005 29.68 834 24.63 0.7 33.3 99 0.6 33.1
04:35 1005 29.68 834 24.63 0.9 33.7 99 0.8 33.4
04:40 1005 29.68 834 24.63 1 33.8 99 0.8 33.4
04:45 1005 29.68 834 24.63 0.9 33.7 98 0.7 33.2
04:50 1005 29.68 834 24.63 1 33.8 98 0.7 33.3
04:55 1005 29.68 834 24.63 1.1 34 97 0.7 33.3
05:00 1005 29.68 834 24.63 1.2 34.2 97 0.8 33.4
05:05 1005 29.68 834 24.63 1.3 34.3 96 0.8 33.4
05:10 1005 29.68 835 24.66 1.2 34.2 96 0.7 33.3
05:15 1005 29.68 835 24.66 1.2 34.2 96 0.7 33.2
05:20 1005 29.68 835 24.66 1.2 34.1 96 0.6 33.1
05:25 1005 29.68 835 24.66 1.1 34 96 0.5 32.8
05:30 1006 29.71 835 24.66 0.9 33.6 96 0.3 32.6
05:35 1006 29.71 835 24.66 0.8 33.4 96 0.3 32.5
05:40 1006 29.71 835 24.66 0.7 33.3 97 0.3 32.5
05:45 1006 29.71 835 24.66 0.7 33.2 97 0.2 32.4
05:50 1006 29.71 835 24.66 0.6 33.1 97 0.2 32.4
05:55 1006 29.71 835 24.66 0.6 33.1 98 0.3 32.5
06:00 1006 29.71 835 24.66 0.6 33.2 98 0.3 32.6
06:05 1006 29.71 836 24.69 0.7 33.3 98 0.4 32.7
06:10 1007 29.74 836 24.69 0.9 33.7 98 0.6 33
06:15 1007 29.74 836 24.69 1.1 34 95 0.4 32.8
06:20 1007 29.74 836 24.69 1.2 34.2 95 0.5 32.8
06:25 1007 29.74 836 24.69 1 33.9 95 0.4 32.7
06:30 1007 29.74 836 24.69 0.9 33.7 96 0.4 32.7
06:35 1008 29.77 837 24.72 0.8 33.4 97 0.3 32.5
06:40 1008 29.77 837 24.72 0.4 32.7 98 0 32
06:45 1008 29.77 837 24.72 0.1 32.3 98 -0.2 31.7
06:50 1008 29.77 837 24.72 0 32.1 99 -0.1 31.8
06:55 1008 29.77 837 24.72 0.1 32.2 99 -0.1 31.9
07:00 1008 29.77 838 24.75 0.1 32.2 99 -0 32
07:05 1008 29.77 838 24.75 0.2 32.4 99 0 32
07:10 1009 29.8 838 24.75 0.2 32.3 98 -0.1 31.9
07:15 1009 29.8 838 24.75 0.2 32.3 97 -0.2 31.6
07:20 1009 29.8 838 24.75 0.1 32.3 97 -0.3 31.5
07:25 1009 29.8 838 24.75 0.2 32.3 96 -0.4 31.2
07:30 1009 29.8 838 24.75 0.2 32.4 95 -0.4 31.2
07:35 1009 29.8 838 24.75 0.3 32.5 95 -0.4 31.2
07:40 1009 29.8 838 24.75 0.4 32.7 94 -0.4 31.3
07:45 1009 29.8 839 24.78 0.4 32.8 94 -0.4 31.3
07:50 1010 29.83 839 24.78 0.5 32.8 93 -0.6 31
07:55 1010 29.83 839 24.78 0.6 33.1 92 -0.6 30.9
08:00 1010 29.83 839 24.78 0.6 33.1 91 -0.7 30.7
08:05 1010 29.83 839 24.78 0.7 33.2 89 -0.9 30.4
08:10 1010 29.83 839 24.78 0.8 33.4 89 -0.9 30.4
08:15 1010 29.83 839 24.78 0.9 33.5 88 -0.9 30.3
08:20 1010 29.83 839 24.78 0.9 33.6 88 -0.9 30.3
08:25 1010 29.83 839 24.78 1 33.8 87 -1 30.2
08:30 1010 29.83 839 24.78 1 33.8 87 -1 30.3
08:35 1010 29.83 839 24.78 1.1 33.9 87 -0.9 30.3
08:40 1010 29.83 839 24.78 1.1 33.9 87 -0.9 30.3
08:45 1010 29.83 839 24.78 1.2 34.1 86 -0.9 30.4
08:50 1010 29.83 839 24.78 1.3 34.3 84 -1.1 30
08:55 1010 29.83 839 24.78 1.3 34.3 83 -1.3 29.7
09:00 1010 29.83 840 24.81 1.5 34.6 81 -1.4 29.4
09:05 1011 29.85 840 24.81 1.6 34.8 80 -1.5 29.3
09:10 1011 29.85 840 24.81 1.6 35 80 -1.4 29.4
09:15 1011 29.85 840 24.81 1.8 35.2 79 -1.5 29.3
09:20 1011 29.85 840 24.81 1.8 35.3 78 -1.6 29.2
09:25 1011 29.85 840 24.81 2 35.6 76 -1.8 28.8
09:30 1011 29.85 840 24.81 2.1 35.7 76 -1.7 28.9
09:35 1011 29.85 840 24.81 2.1 35.8 76 -1.7 28.9
09:40 1011 29.85 840 24.81 2.2 35.9 75 -1.7 28.9
09:45 1011 29.85 840 24.81 2.4 36.2 75 -1.7 28.9
09:50 1011 29.85 840 24.81 2.4 36.4 75 -1.6 29.1
09:55 1011 29.85 840 24.81 2.5 36.4 73 -1.9 28.6
10:00 1011 29.85 840 24.81 2.5 36.5 74 -1.8 28.8
10:05 1011 29.85 841 24.83 2.6 36.6 72 -1.9 28.5
10:10 1011 29.85 841 24.83 2.6 36.6 72 -2.1 28.3
10:15 1011 29.85 841 24.83 2.7 36.8 71 -2 28.4
10:20 1012 29.88 841 24.83 2.9 37.3 70 -2.1 28.2
10:25 1012 29.88 841 24.83 3.1 37.5 70 -1.9 28.6
10:30 1012 29.88 841 24.83 3.1 37.6 69 -2.1 28.3
10:35 1012 29.88 841 24.83 3.2 37.7 69 -2 28.4
10:40 1012 29.88 841 24.83 3.2 37.8 66 -2.6 27.3
10:45 1012 29.88 841 24.83 3.4 38 67 -2.3 27.9
10:50 1012 29.88 841 24.83 3.8 38.8 63 -2.5 27.4
10:55 1012 29.88 841 24.83 3.8 38.9 64 -2.4 27.7
11:00 1012 29.88 841 24.83 3.6 38.6 65 -2.4 27.7
11:05 1012 29.88 841 24.83 3.4 38.1 64 -2.8 27
11:10 1012 29.88 842 24.86 3.4 38.2 62 -3.2 26.2
11:15 1012 29.88 842 24.86 3.6 38.5 60 -3.5 25.7
11:20 1013 29.91 842 24.86 3.6 38.4 60 -3.4 25.8
11:25 1012 29.88 842 24.86 3.8 38.8 60 -3.3 26
11:30 1012 29.88 842 24.86 4.1 39.4 57 -3.6 25.5
11:35 1012 29.88 842 24.86 4 39.2 56 -3.9 25
11:40 1013 29.91 842 24.86 4.1 39.3 56 -4 24.8
11:45 1013 29.91 842 24.86 3.9 39.1 56 -3.9 24.9
11:50 1013 29.91 842 24.86 3.6 38.5 56 -4.3 24.3
11:55 1013 29.91 842 24.86 3.5 38.4 56 -4.4 24
12:00 1013 29.91 842 24.86 3.5 38.4 55 -4.6 23.7
12:05 1013 29.91 842 24.86 3.7 38.7 54 -4.8 23.4
12:10 1013 29.91 842 24.86 4 39.2 55 -4.2 24.5
12:15 1013 29.91 842 24.86 4 39.1 53 -4.6 23.6
12:20 1013 29.91 842 24.86 3.7 38.6 53 -5 23
12:25 1013 29.91 842 24.86 3.7 38.6 50 -5.8 21.6
12:30 1013 29.91 843 24.89 4.1 39.5 47 -6.1 21
12:35 1013 29.91 843 24.89 4.6 40.3 46 -6 21.2
12:40 1013 29.91 843 24.89 4.4 40 48 -5.6 21.9
12:45 1014 29.94 843 24.89 4.5 40.1 50 -5 22.9
12:50 1014 29.94 843 24.89 4.3 39.8 49 -5.5 22.1
12:55 1014 29.94 843 24.89 4.3 39.8 48 -5.7 21.7
13:00 1014 29.94 843 24.89 4.6 40.2 47 -5.9 21.4
13:05 1014 29.94 843 24.89 4.7 40.5 46 -5.9 21.4
13:10 1014 29.94 843 24.89 4.9 40.8 44 -6.3 20.7
13:15 1014 29.94 843 24.89 5.3 41.5 44 -6 21.3
13:20 1014 29.94 843 24.89 5.2 41.3 43 -6.3 20.7
13:25 1014 29.94 843 24.89 5.4 41.8 42 -6.3 20.6
13:30 1014 29.94 843 24.89 5.6 42.1 42 -6.2 20.8
13:35 1014 29.94 843 24.89 5.7 42.2 42 -6.1 21
13:40 1014 29.94 843 24.89 5.2 41.4 41 -7 19.4
13:45 1014 29.94 843 24.89 5.5 41.8 38 -7.6 18.3
13:50 1014 29.94 843 24.89 5.7 42.2 38 -7.4 18.7
13:55 1014 29.94 843 24.89 5.4 41.8 38 -7.7 18.1
14:00 1014 29.94 844 24.92 5.4 41.8 40 -7.1 19.3
14:05 1014 29.94 844 24.92 5.6 42.1 38 -7.5 18.4
14:10 1015 29.97 844 24.92 5.5 41.9 38 -7.7 18.2
14:15 1015 29.97 844 24.92 5.8 42.5 37 -7.9 17.8
14:20 1015 29.97 844 24.92 5.9 42.7 35 -8.3 17
14:25 1015 29.97 844 24.92 6.2 43.1 37 -7.5 18.6
14:30 1015 29.97 844 24.92 6 42.8 34 -8.7 16.4
14:35 1015 29.97 844 24.92 5.9 42.7 34 -8.6 16.4
14:40 1015 29.97 844 24.92 6 42.8 32 -9.4 15.1
14:45 1015 29.97 844 24.92 6.1 42.9 31 -9.7 14.6
14:50 1015 29.97 844 24.92 6.1 42.9 33 -8.9 16
14:55 1015 29.97 844 24.92 6 42.7 34 -8.8 16.1
15:00 1015 29.97 844 24.92 6.3 43.3 31 -9.7 14.5
15:05 1015 29.97 844 24.92 6.1 43.1 34 -8.6 16.6
15:10 1015 29.97 844 24.92 6.2 43.2 34 -8.5 16.7
15:15 1015 29.97 844 24.92 6.5 43.8 32 -9.2 15.5
15:20 1015 29.97 844 24.92 6.1 43.1 32 -9.2 15.4
15:25 1015 29.97 844 24.92 5.5 41.8 35 -8.9 16
15:30 1015 29.97 844 24.92 5.3 41.6 37 -8.3 17
15:35 1015 29.97 844 24.92 5.2 41.4 35 -8.9 15.9
15:40 1015 29.97 844 24.92 5.1 41.2 36 -8.9 15.9
15:45 1015 29.97 845 24.95 5 41 35 -9.2 15.5
15:50 1015 29.97 845 24.95 4.9 40.8 37 -8.5 16.6
15:55 1015 29.97 845 24.95 5 41 35 -9.3 15.2
16:00 1015 29.97 845 24.95 5 41.1 36 -8.9 15.9
16:05 1015 29.97 845 24.95 5.2 41.3 36 -8.6 16.5
16:10 1015 29.97 845 24.95 5 41 34 -9.7 14.5
16:15 1015 29.97 845 24.95 5.2 41.4 35 -9 15.8
16:20 1015 29.97 845 24.95 5.3 41.5 35 -9 15.7
16:25 1015 29.97 845 24.95 5.1 41.2 35 -9 15.8
16:30 1015 29.97 845 24.95 5 41.1 34 -9.6 14.7
16:35 1015 29.97 845 24.95 5 40.9 34 -9.6 14.7
16:40 1015 29.97 845 24.95 5 41 35 -9.3 15.3
16:45 1016 30 845 24.95 5.2 41.3 33 -9.9 14.3
16:50 1016 30 845 24.95 5.3 41.6 33 -9.7 14.5
16:55 1016 30 845 24.95 5.6 42 33 -9.6 14.7
17:00 1016 30 845 24.95 5.4 41.7 33 -9.7 14.6
17:05 1016 30 845 24.95 5.2 41.3 34 -9.5 14.9
17:10 1016 30 845 24.95 5 41 35 -9.1 15.5
17:15 1016 30 845 24.95 5 40.9 36 -9 15.7
17:20 1016 30 845 24.95 4.8 40.6 35 -9.4 15
17:25 1016 30 845 24.95 4.7 40.5 36 -9.1 15.7
17:30 1016 30 845 24.95 4.7 40.4 38 -8.5 16.8
17:35 1016 30 845 24.95 4.5 40.1 40 -8 17.7
17:40 1016 30 845 24.95 4.4 39.9 39 -8.3 17.1
17:45 1016 30 845 24.95 4.3 39.7 39 -8.5 16.7
17:50 1016 30 845 24.95 4.3 39.7 38 -8.7 16.3
17:55 1016 30 846 24.98 4.2 39.6 43 -7.2 19
18:00 1016 30 846 24.98 3.9 39 49 -6 21.3
18:05 1016 30 846 24.98 3.9 39 51 -5.4 22.3
18:10 1016 30 846 24.98 3.7 38.6 50 -5.7 21.8
18:15 1017 30.03 846 24.98 3.5 38.3 52 -5.4 22.3
18:20 1017 30.03 846 24.98 3.4 38.1 54 -5 23
18:25 1017 30.03 846 24.98 3.2 37.8 50 -6.3 20.6
18:30 1017 30.03 846 24.98 3.2 37.7 51 -6.1 21
18:35 1017 30.03 846 24.98 3.2 37.8 51 -6 21.2
18:40 1017 30.03 846 24.98 3.2 37.8 48 -6.9 19.6
18:45 1017 30.03 846 24.98 3.3 37.9 47 -6.9 19.5
18:50 1017 30.03 846 24.98 3.3 37.9 47 -7.1 19.2
18:55 1017 30.03 846 24.98 3.2 37.7 43 -8.1 17.4
19:00 1017 30.03 846 24.98 3.1 37.6 43 -8.2 17.3
19:05 1017 30.03 846 24.98 3 37.4 44 -8 17.6
19:10 1017 30.03 847 25.01 3 37.4 46 -7.5 18.4
19:15 1017 30.03 847 25.01 2.9 37.2 46 -7.7 18.2
19:20 1017 30.03 847 25.01 2.8 37 46 -7.6 18.3
19:25 1018 30.06 847 25.01 2.7 36.8 47 -7.5 18.5
19:30 1018 30.06 847 25.01 2.6 36.6 48 -7.5 18.6
19:35 1018 30.06 847 25.01 2.3 36.2 50 -7 19.3
19:40 1018 30.06 847 25.01 2.2 35.9 50 -7.2 19
19:45 1018 30.06 847 25.01 2 35.6 50 -7.2 19
19:50 1018 30.06 847 25.01 1.9 35.5 52 -7 19.4
19:55 1018 30.06 847 25.01 1.8 35.3 52 -7 19.3
20:00 1018 30.06 847 25.01 1.7 35.1 51 -7.3 18.8
20:05 1018 30.06 847 25.01 1.6 34.9 52 -7.3 18.8
20:10 1018 30.06 847 25.01 1.6 34.8 51 -7.6 18.3
20:15 1018 30.06 848 25.04 1.5 34.7 51 -7.5 18.6
20:20 1018 30.06 848 25.04 1.5 34.7 52 -7.4 18.7
20:25 1018 30.06 848 25.04 1.4 34.6 52 -7.4 18.7
20:30 1019 30.09 848 25.04 1.3 34.4 53 -7.2 19.1
20:35 1019 30.09 848 25.04 1.2 34.2 54 -7.2 19.1
20:40 1019 30.09 848 25.04 1.1 34 53 -7.3 18.8
20:45 1019 30.09 848 25.04 1 33.8 54 -7.4 18.7
20:50 1019 30.09 848 25.04 0.9 33.6 54 -7.3 18.9
20:55 1019 30.09 848 25.04 0.8 33.5 53 -7.7 18.1
21:00 1019 30.09 848 25.04 0.7 33.3 54 -7.6 18.3
21:05 1019 30.09 848 25.04 0.5 32.9 54 -7.8 17.9
21:10 1019 30.09 848 25.04 0.5 32.9 52 -8.4 16.9
21:15 1019 30.09 848 25.04 0.3 32.6 55 -7.7 18.1
21:20 1019 30.09 848 25.04 0.1 32.3 54 -8.1 17.5
21:25 1019 30.09 848 25.04 0.1 32.3 53 -8.3 17.1
21:30 1019 30.09 848 25.04 0.2 32.4 51 -8.8 16.1
21:35 1019 30.09 848 25.04 0.2 32.3 52 -8.6 16.5
21:40 1019 30.09 849 25.07 0.2 32.3 50 -9.2 15.5
21:45 1019 30.09 849 25.07 -0 32 50 -9.3 15.3
21:50 1019 30.09 849 25.07 -0.1 31.9 49 -9.5 14.9
21:55 1019 30.09 849 25.07 -0.2 31.6 50 -9.5 14.9
22:00 1020 30.12 849 25.07 -0.2 31.6 49 -9.8 14.3
22:05 1020 30.12 849 25.07 -0.1 31.8 48 -10 14
22:10 1020 30.12 849 25.07 -0.1 31.8 48 -9.9 14.2
22:15 1020 30.12 849 25.07 -0.3 31.4 50 -9.6 14.8
22:20 1020 30.12 849 25.07 -0.6 31 50 -9.7 14.5
22:25 1020 30.12 849 25.07 -0.7 30.7 51 -9.6 14.7
22:30 1020 30.12 849 25.07 -0.7 30.7 50 -10 14
22:35 1020 30.12 849 25.07 -0.8 30.5 51 -9.9 14.2
22:40 1020 30.12 849 25.07 -1 30.2 54 -9.2 15.5
22:45 1020 30.12 849 25.07 -1.4 29.4 54 -9.5 14.8
22:50 1020 30.12 849 25.07 -1.8 28.8 56 -9.5 14.9
22:55 1020 30.12 849 25.07 -2.2 28.1 57 -9.6 14.7
23:00 1020 30.12 849 25.07 -2.2 28.1 55 -10.1 13.8
23:05 1020 30.12 849 25.07 -1.9 28.5 53 -10.3 13.5
23:10 1020 30.12 849 25.07 -1.8 28.7 52 -10.5 13.1
23:15 1020 30.12 849 25.07 -1.7 28.9 51 -10.5 13
23:20 1020 30.12 849 25.07 -1.6 29 50 -10.6 12.8
23:25 1020 30.12 849 25.07 -1.9 28.5 54 -10.1 13.9
23:30 1020 30.12 850 25.1 -3.1 26.5 57 -10.5 13.1
23:35 1020 30.12 850 25.1 -3.2 26.3 58 -10.3 13.4
23:40 1020 30.12 850 25.1 -2.9 26.7 56 -10.7 12.8
23:45 1021 30.15 850 25.1 -2.9 26.7 56 -10.5 13.1
23:50 1021 30.15 850 25.1 -3.4 25.8 60 -10.2 13.6
23:55 1021 30.15 850 25.1 -3.6 25.4 60 -10.3 13.4
24:00 1021 30.15 850 25.1 -3.5 25.6 58 -10.6 13